sensor_id;sensor_type;location;lat;lon;timestamp;P1;durP1;ratioP1;P2;durP2;ratioP2
7432;SDS011;32233;49.500;7.764;2023-03-19T00:01:56;9.93;;;6.13;;
7432;SDS011;32233;49.500;7.764;2023-03-19T00:04:23;6.87;;;4.70;;
7432;SDS011;32233;49.500;7.764;2023-03-19T00:06:50;10.53;;;5.30;;
7432;SDS011;32233;49.500;7.764;2023-03-19T00:09:18;8.23;;;4.90;;
7432;SDS011;32233;49.500;7.764;2023-03-19T00:11:46;9.80;;;5.37;;
7432;SDS011;32233;49.500;7.764;2023-03-19T00:14:13;10.73;;;5.90;;
7432;SDS011;32233;49.500;7.764;2023-03-19T00:16:41;7.23;;;4.77;;
7432;SDS011;32233;49.500;7.764;2023-03-19T00:19:07;9.63;;;4.80;;
7432;SDS011;32233;49.500;7.764;2023-03-19T00:21:35;5.90;;;4.43;;
7432;SDS011;32233;49.500;7.764;2023-03-19T00:24:01;7.87;;;4.87;;
7432;SDS011;32233;49.500;7.764;2023-03-19T00:26:29;8.00;;;4.57;;
7432;SDS011;32233;49.500;7.764;2023-03-19T00:28:57;6.53;;;4.40;;
7432;SDS011;32233;49.500;7.764;2023-03-19T00:31:25;10.40;;;5.53;;
7432;SDS011;32233;49.500;7.764;2023-03-19T00:33:53;10.13;;;5.97;;
7432;SDS011;32233;49.500;7.764;2023-03-19T00:36:22;9.87;;;5.73;;
7432;SDS011;32233;49.500;7.764;2023-03-19T00:38:55;9.67;;;4.63;;
7432;SDS011;32233;49.500;7.764;2023-03-19T00:41:22;7.37;;;3.93;;
7432;SDS011;32233;49.500;7.764;2023-03-19T00:43:54;6.37;;;3.23;;
7432;SDS011;32233;49.500;7.764;2023-03-19T00:46:21;4.97;;;3.23;;
7432;SDS011;32233;49.500;7.764;2023-03-19T00:48:49;5.17;;;3.10;;
7432;SDS011;32233;49.500;7.764;2023-03-19T00:51:18;7.10;;;3.27;;
7432;SDS011;32233;49.500;7.764;2023-03-19T00:53:45;3.97;;;2.87;;
7432;SDS011;32233;49.500;7.764;2023-03-19T00:56:12;6.23;;;3.53;;
7432;SDS011;32233;49.500;7.764;2023-03-19T00:58:40;5.03;;;3.20;;
7432;SDS011;32233;49.500;7.764;2023-03-19T01:01:07;7.63;;;3.73;;
7432;SDS011;32233;49.500;7.764;2023-03-19T01:03:36;8.00;;;3.73;;
7432;SDS011;32233;49.500;7.764;2023-03-19T01:06:03;8.00;;;4.70;;
7432;SDS011;32233;49.500;7.764;2023-03-19T01:08:30;8.40;;;4.47;;
7432;SDS011;32233;49.500;7.764;2023-03-19T01:11:30;8.27;;;5.13;;
7432;SDS011;32233;49.500;7.764;2023-03-19T01:13:50;6.43;;;4.37;;
7432;SDS011;32233;49.500;7.764;2023-03-19T01:16:17;7.37;;;4.63;;
7432;SDS011;32233;49.500;7.764;2023-03-19T01:18:43;7.03;;;4.90;;
7432;SDS011;32233;49.500;7.764;2023-03-19T01:21:10;7.60;;;4.67;;
7432;SDS011;32233;49.500;7.764;2023-03-19T01:23:43;9.30;;;4.97;;
7432;SDS011;32233;49.500;7.764;2023-03-19T01:26:09;7.87;;;5.17;;
7432;SDS011;32233;49.500;7.764;2023-03-19T01:28:36;8.30;;;4.50;;
7432;SDS011;32233;49.500;7.764;2023-03-19T01:31:04;9.10;;;5.03;;
7432;SDS011;32233;49.500;7.764;2023-03-19T01:33:54;6.43;;;4.87;;
7432;SDS011;32233;49.500;7.764;2023-03-19T01:36:34;10.00;;;4.77;;
7432;SDS011;32233;49.500;7.764;2023-03-19T01:39:04;5.93;;;5.00;;
7432;SDS011;32233;49.500;7.764;2023-03-19T01:41:30;9.87;;;4.70;;
7432;SDS011;32233;49.500;7.764;2023-03-19T01:44:30;7.33;;;4.33;;
7432;SDS011;32233;49.500;7.764;2023-03-19T01:47:18;6.40;;;4.70;;
7432;SDS011;32233;49.500;7.764;2023-03-19T01:53:25;4.90;;;3.77;;
7432;SDS011;32233;49.500;7.764;2023-03-19T01:56:21;9.63;;;4.43;;
7432;SDS011;32233;49.500;7.764;2023-03-19T01:59:05;7.50;;;4.03;;
7432;SDS011;32233;49.500;7.764;2023-03-19T02:02:00;6.13;;;3.77;;
7432;SDS011;32233;49.500;7.764;2023-03-19T02:04:32;6.70;;;3.73;;
7432;SDS011;32233;49.500;7.764;2023-03-19T02:07:01;6.27;;;3.97;;
7432;SDS011;32233;49.500;7.764;2023-03-19T02:09:28;9.70;;;4.13;;
7432;SDS011;32233;49.500;7.764;2023-03-19T02:11:57;8.17;;;4.47;;
7432;SDS011;32233;49.500;7.764;2023-03-19T02:14:25;5.97;;;4.37;;
7432;SDS011;32233;49.500;7.764;2023-03-19T02:16:53;8.13;;;4.77;;
7432;SDS011;32233;49.500;7.764;2023-03-19T02:19:22;9.70;;;5.63;;
7432;SDS011;32233;49.500;7.764;2023-03-19T02:21:55;9.53;;;5.60;;
7432;SDS011;32233;49.500;7.764;2023-03-19T02:24:25;8.73;;;4.97;;
7432;SDS011;32233;49.500;7.764;2023-03-19T02:27:02;10.00;;;6.63;;
7432;SDS011;32233;49.500;7.764;2023-03-19T02:29:30;13.83;;;8.20;;
7432;SDS011;32233;49.500;7.764;2023-03-19T02:31:58;9.73;;;6.80;;
7432;SDS011;32233;49.500;7.764;2023-03-19T02:36:56;11.03;;;5.80;;
7432;SDS011;32233;49.500;7.764;2023-03-19T02:39:31;8.37;;;5.77;;
7432;SDS011;32233;49.500;7.764;2023-03-19T02:42:10;6.67;;;4.40;;
7432;SDS011;32233;49.500;7.764;2023-03-19T02:44:37;8.30;;;4.70;;
7432;SDS011;32233;49.500;7.764;2023-03-19T02:47:03;5.20;;;3.93;;
7432;SDS011;32233;49.500;7.764;2023-03-19T02:49:30;6.03;;;3.63;;
7432;SDS011;32233;49.500;7.764;2023-03-19T02:51:57;5.33;;;3.30;;
7432;SDS011;32233;49.500;7.764;2023-03-19T02:54:23;5.27;;;3.60;;
7432;SDS011;32233;49.500;7.764;2023-03-19T02:56:50;5.90;;;3.87;;
7432;SDS011;32233;49.500;7.764;2023-03-19T02:59:18;7.63;;;3.60;;
7432;SDS011;32233;49.500;7.764;2023-03-19T03:01:45;4.43;;;3.93;;
7432;SDS011;32233;49.500;7.764;2023-03-19T03:04:11;6.57;;;3.53;;
7432;SDS011;32233;49.500;7.764;2023-03-19T03:06:40;4.50;;;3.23;;
7432;SDS011;32233;49.500;7.764;2023-03-19T03:09:06;6.57;;;3.63;;
7432;SDS011;32233;49.500;7.764;2023-03-19T03:11:33;6.77;;;3.47;;
7432;SDS011;32233;49.500;7.764;2023-03-19T03:13:59;3.67;;;3.27;;
7432;SDS011;32233;49.500;7.764;2023-03-19T03:16:26;4.07;;;3.40;;
7432;SDS011;32233;49.500;7.764;2023-03-19T03:18:52;4.63;;;3.57;;
7432;SDS011;32233;49.500;7.764;2023-03-19T03:21:19;5.43;;;3.77;;
7432;SDS011;32233;49.500;7.764;2023-03-19T03:23:46;7.93;;;3.63;;
7432;SDS011;32233;49.500;7.764;2023-03-19T03:26:14;5.30;;;3.47;;
7432;SDS011;32233;49.500;7.764;2023-03-19T03:28:41;5.33;;;3.40;;
7432;SDS011;32233;49.500;7.764;2023-03-19T03:31:07;4.83;;;3.37;;
7432;SDS011;32233;49.500;7.764;2023-03-19T03:33:36;6.93;;;4.40;;
7432;SDS011;32233;49.500;7.764;2023-03-19T03:36:02;6.13;;;3.70;;
7432;SDS011;32233;49.500;7.764;2023-03-19T03:38:29;4.37;;;3.80;;
7432;SDS011;32233;49.500;7.764;2023-03-19T03:40:57;4.57;;;3.23;;
7432;SDS011;32233;49.500;7.764;2023-03-19T03:43:25;4.07;;;3.37;;
7432;SDS011;32233;49.500;7.764;2023-03-19T03:45:52;3.57;;;3.20;;
7432;SDS011;32233;49.500;7.764;2023-03-19T03:48:20;8.47;;;3.87;;
7432;SDS011;32233;49.500;7.764;2023-03-19T03:50:47;8.40;;;3.97;;
7432;SDS011;32233;49.500;7.764;2023-03-19T03:53:18;4.17;;;3.77;;
7432;SDS011;32233;49.500;7.764;2023-03-19T03:55:45;4.43;;;3.40;;
7432;SDS011;32233;49.500;7.764;2023-03-19T03:58:12;5.40;;;3.70;;
7432;SDS011;32233;49.500;7.764;2023-03-19T04:00:38;6.03;;;3.90;;
7432;SDS011;32233;49.500;7.764;2023-03-19T04:03:05;4.93;;;3.63;;
7432;SDS011;32233;49.500;7.764;2023-03-19T04:05:32;5.23;;;3.67;;
7432;SDS011;32233;49.500;7.764;2023-03-19T04:07:58;5.23;;;3.87;;
7432;SDS011;32233;49.500;7.764;2023-03-19T04:10:25;4.30;;;3.20;;
7432;SDS011;32233;49.500;7.764;2023-03-19T04:12:51;3.77;;;3.40;;
7432;SDS011;32233;49.500;7.764;2023-03-19T04:15:18;4.10;;;3.70;;
7432;SDS011;32233;49.500;7.764;2023-03-19T04:17:46;6.37;;;3.60;;
7432;SDS011;32233;49.500;7.764;2023-03-19T04:20:14;4.23;;;3.80;;
7432;SDS011;32233;49.500;7.764;2023-03-19T04:22:44;4.83;;;3.87;;
7432;SDS011;32233;49.500;7.764;2023-03-19T04:25:11;6.70;;;3.93;;
7432;SDS011;32233;49.500;7.764;2023-03-19T04:27:38;6.70;;;3.97;;
7432;SDS011;32233;49.500;7.764;2023-03-19T04:30:06;3.70;;;3.37;;
7432;SDS011;32233;49.500;7.764;2023-03-19T04:32:35;4.47;;;3.80;;
7432;SDS011;32233;49.500;7.764;2023-03-19T04:35:02;4.40;;;4.00;;
7432;SDS011;32233;49.500;7.764;2023-03-19T04:37:29;4.47;;;3.70;;
7432;SDS011;32233;49.500;7.764;2023-03-19T04:39:56;8.50;;;4.17;;
7432;SDS011;32233;49.500;7.764;2023-03-19T04:42:23;4.37;;;3.70;;
7432;SDS011;32233;49.500;7.764;2023-03-19T04:45:13;7.70;;;4.27;;
7432;SDS011;32233;49.500;7.764;2023-03-19T04:47:40;5.57;;;4.03;;
7432;SDS011;32233;49.500;7.764;2023-03-19T04:50:07;5.60;;;4.53;;
7432;SDS011;32233;49.500;7.764;2023-03-19T04:52:35;6.00;;;4.20;;
7432;SDS011;32233;49.500;7.764;2023-03-19T04:55:05;7.73;;;4.00;;
7432;SDS011;32233;49.500;7.764;2023-03-19T04:57:45;7.37;;;3.50;;
7432;SDS011;32233;49.500;7.764;2023-03-19T05:00:12;8.37;;;4.17;;
7432;SDS011;32233;49.500;7.764;2023-03-19T05:02:41;5.97;;;3.33;;
7432;SDS011;32233;49.500;7.764;2023-03-19T05:05:08;3.77;;;3.07;;
7432;SDS011;32233;49.500;7.764;2023-03-19T05:07:38;3.73;;;3.27;;
7432;SDS011;32233;49.500;7.764;2023-03-19T05:10:07;4.57;;;3.47;;
7432;SDS011;32233;49.500;7.764;2023-03-19T05:12:35;5.63;;;3.40;;
7432;SDS011;32233;49.500;7.764;2023-03-19T05:15:03;5.00;;;3.43;;
7432;SDS011;32233;49.500;7.764;2023-03-19T05:17:42;5.27;;;4.03;;
7432;SDS011;32233;49.500;7.764;2023-03-19T05:20:17;7.77;;;3.70;;
7432;SDS011;32233;49.500;7.764;2023-03-19T05:22:51;8.03;;;3.23;;
7432;SDS011;32233;49.500;7.764;2023-03-19T05:25:20;6.93;;;4.30;;
7432;SDS011;32233;49.500;7.764;2023-03-19T05:27:47;6.20;;;3.80;;
7432;SDS011;32233;49.500;7.764;2023-03-19T05:30:19;5.23;;;3.77;;
7432;SDS011;32233;49.500;7.764;2023-03-19T05:32:56;7.00;;;4.00;;
7432;SDS011;32233;49.500;7.764;2023-03-19T05:35:36;4.93;;;3.30;;
7432;SDS011;32233;49.500;7.764;2023-03-19T05:38:08;6.57;;;3.73;;
7432;SDS011;32233;49.500;7.764;2023-03-19T05:40:37;4.97;;;3.47;;
7432;SDS011;32233;49.500;7.764;2023-03-19T05:43:19;6.47;;;4.00;;
7432;SDS011;32233;49.500;7.764;2023-03-19T05:45:49;8.00;;;4.27;;
7432;SDS011;32233;49.500;7.764;2023-03-19T05:48:25;4.50;;;3.87;;
7432;SDS011;32233;49.500;7.764;2023-03-19T05:50:52;4.20;;;3.47;;
7432;SDS011;32233;49.500;7.764;2023-03-19T05:53:20;5.57;;;4.33;;
7432;SDS011;32233;49.500;7.764;2023-03-19T05:56:08;6.33;;;3.33;;
7432;SDS011;32233;49.500;7.764;2023-03-19T05:58:45;6.77;;;3.70;;
7432;SDS011;32233;49.500;7.764;2023-03-19T06:01:16;6.77;;;3.80;;
7432;SDS011;32233;49.500;7.764;2023-03-19T06:03:43;6.40;;;4.13;;
7432;SDS011;32233;49.500;7.764;2023-03-19T06:06:10;6.67;;;4.17;;
7432;SDS011;32233;49.500;7.764;2023-03-19T06:08:41;4.30;;;3.70;;
7432;SDS011;32233;49.500;7.764;2023-03-19T06:11:15;4.10;;;3.63;;
7432;SDS011;32233;49.500;7.764;2023-03-19T06:13:47;6.60;;;3.90;;
7432;SDS011;32233;49.500;7.764;2023-03-19T06:16:15;7.23;;;3.70;;
7432;SDS011;32233;49.500;7.764;2023-03-19T06:18:53;4.63;;;3.77;;
7432;SDS011;32233;49.500;7.764;2023-03-19T06:21:19;7.63;;;3.90;;
7432;SDS011;32233;49.500;7.764;2023-03-19T06:23:46;7.50;;;3.93;;
7432;SDS011;32233;49.500;7.764;2023-03-19T06:26:18;6.13;;;3.60;;
7432;SDS011;32233;49.500;7.764;2023-03-19T06:28:50;5.63;;;3.97;;
7432;SDS011;32233;49.500;7.764;2023-03-19T06:31:17;6.43;;;3.90;;
7432;SDS011;32233;49.500;7.764;2023-03-19T06:34:17;5.07;;;3.70;;
7432;SDS011;32233;49.500;7.764;2023-03-19T06:36:43;5.77;;;3.43;;
7432;SDS011;32233;49.500;7.764;2023-03-19T06:39:12;5.40;;;3.73;;
7432;SDS011;32233;49.500;7.764;2023-03-19T06:41:38;6.07;;;4.00;;
7432;SDS011;32233;49.500;7.764;2023-03-19T06:44:12;5.90;;;3.80;;
7432;SDS011;32233;49.500;7.764;2023-03-19T06:46:38;5.23;;;3.87;;
7432;SDS011;32233;49.500;7.764;2023-03-19T06:49:05;4.63;;;3.70;;
7432;SDS011;32233;49.500;7.764;2023-03-19T06:51:32;7.43;;;4.03;;
7432;SDS011;32233;49.500;7.764;2023-03-19T06:53:58;5.50;;;3.87;;
7432;SDS011;32233;49.500;7.764;2023-03-19T06:56:25;4.70;;;3.73;;
7432;SDS011;32233;49.500;7.764;2023-03-19T06:58:52;6.53;;;4.03;;
7432;SDS011;32233;49.500;7.764;2023-03-19T07:01:18;6.60;;;3.60;;
7432;SDS011;32233;49.500;7.764;2023-03-19T07:03:45;5.33;;;3.73;;
7432;SDS011;32233;49.500;7.764;2023-03-19T07:06:11;5.03;;;3.87;;
7432;SDS011;32233;49.500;7.764;2023-03-19T07:08:38;4.50;;;3.80;;
7432;SDS011;32233;49.500;7.764;2023-03-19T07:11:06;6.77;;;3.87;;
7432;SDS011;32233;49.500;7.764;2023-03-19T07:13:32;6.27;;;3.60;;
7432;SDS011;32233;49.500;7.764;2023-03-19T07:15:59;4.30;;;3.67;;
7432;SDS011;32233;49.500;7.764;2023-03-19T07:18:26;5.33;;;3.60;;
7432;SDS011;32233;49.500;7.764;2023-03-19T07:20:52;4.70;;;3.40;;
7432;SDS011;32233;49.500;7.764;2023-03-19T07:23:19;6.73;;;3.63;;
7432;SDS011;32233;49.500;7.764;2023-03-19T07:25:45;5.60;;;3.60;;
7432;SDS011;32233;49.500;7.764;2023-03-19T07:28:13;4.10;;;3.70;;
7432;SDS011;32233;49.500;7.764;2023-03-19T07:30:40;4.53;;;3.30;;
7432;SDS011;32233;49.500;7.764;2023-03-19T07:33:07;7.67;;;3.70;;
7432;SDS011;32233;49.500;7.764;2023-03-19T07:35:33;4.03;;;3.10;;
7432;SDS011;32233;49.500;7.764;2023-03-19T07:38:00;3.93;;;3.20;;
7432;SDS011;32233;49.500;7.764;2023-03-19T07:40:28;5.60;;;3.93;;
7432;SDS011;32233;49.500;7.764;2023-03-19T07:42:54;6.77;;;3.63;;
7432;SDS011;32233;49.500;7.764;2023-03-19T07:45:22;5.23;;;3.37;;
7432;SDS011;32233;49.500;7.764;2023-03-19T07:47:49;3.37;;;3.07;;
7432;SDS011;32233;49.500;7.764;2023-03-19T07:50:16;5.13;;;3.40;;
7432;SDS011;32233;49.500;7.764;2023-03-19T07:52:44;5.70;;;3.93;;
7432;SDS011;32233;49.500;7.764;2023-03-19T07:55:12;5.87;;;3.47;;
7432;SDS011;32233;49.500;7.764;2023-03-19T07:57:40;6.50;;;4.00;;
7432;SDS011;32233;49.500;7.764;2023-03-19T08:00:06;3.80;;;3.43;;
7432;SDS011;32233;49.500;7.764;2023-03-19T08:02:38;4.63;;;3.57;;
7432;SDS011;32233;49.500;7.764;2023-03-19T08:05:04;5.47;;;3.80;;
7432;SDS011;32233;49.500;7.764;2023-03-19T08:07:31;4.37;;;3.40;;
7432;SDS011;32233;49.500;7.764;2023-03-19T08:09:58;3.60;;;3.30;;
7432;SDS011;32233;49.500;7.764;2023-03-19T08:12:25;4.20;;;3.30;;
7432;SDS011;32233;49.500;7.764;2023-03-19T08:14:51;3.50;;;3.13;;
7432;SDS011;32233;49.500;7.764;2023-03-19T08:17:18;3.87;;;3.13;;
7432;SDS011;32233;49.500;7.764;2023-03-19T08:19:46;6.13;;;3.80;;
7432;SDS011;32233;49.500;7.764;2023-03-19T08:22:12;8.23;;;4.20;;
7432;SDS011;32233;49.500;7.764;2023-03-19T08:24:39;5.37;;;4.33;;
7432;SDS011;32233;49.500;7.764;2023-03-19T08:27:05;6.80;;;4.33;;
7432;SDS011;32233;49.500;7.764;2023-03-19T08:29:33;7.57;;;4.00;;
7432;SDS011;32233;49.500;7.764;2023-03-19T08:32:01;4.30;;;3.70;;
7432;SDS011;32233;49.500;7.764;2023-03-19T08:34:27;6.40;;;4.20;;
7432;SDS011;32233;49.500;7.764;2023-03-19T08:36:54;6.30;;;5.00;;
7432;SDS011;32233;49.500;7.764;2023-03-19T08:39:20;7.50;;;5.60;;
7432;SDS011;32233;49.500;7.764;2023-03-19T08:41:47;5.20;;;4.17;;
7432;SDS011;32233;49.500;7.764;2023-03-19T08:44:13;8.23;;;4.77;;
7432;SDS011;32233;49.500;7.764;2023-03-19T08:46:40;6.00;;;3.90;;
7432;SDS011;32233;49.500;7.764;2023-03-19T08:49:08;4.73;;;3.40;;
7432;SDS011;32233;49.500;7.764;2023-03-19T08:51:34;4.37;;;3.23;;
7432;SDS011;32233;49.500;7.764;2023-03-19T08:54:01;4.30;;;3.30;;
7432;SDS011;32233;49.500;7.764;2023-03-19T08:56:28;4.60;;;2.80;;
7432;SDS011;32233;49.500;7.764;2023-03-19T08:58:55;4.13;;;3.40;;
7432;SDS011;32233;49.500;7.764;2023-03-19T09:01:22;3.10;;;2.90;;
7432;SDS011;32233;49.500;7.764;2023-03-19T09:03:49;5.63;;;2.83;;
7432;SDS011;32233;49.500;7.764;2023-03-19T09:06:16;5.60;;;2.60;;
7432;SDS011;32233;49.500;7.764;2023-03-19T09:08:42;4.73;;;2.57;;
7432;SDS011;32233;49.500;7.764;2023-03-19T09:11:09;5.60;;;2.53;;
7432;SDS011;32233;49.500;7.764;2023-03-19T09:13:36;6.30;;;2.83;;
7432;SDS011;32233;49.500;7.764;2023-03-19T09:16:03;4.17;;;2.83;;
7432;SDS011;32233;49.500;7.764;2023-03-19T09:18:30;4.30;;;3.00;;
7432;SDS011;32233;49.500;7.764;2023-03-19T09:20:57;4.80;;;3.40;;
7432;SDS011;32233;49.500;7.764;2023-03-19T09:23:24;3.80;;;2.70;;
7432;SDS011;32233;49.500;7.764;2023-03-19T09:25:51;7.07;;;2.50;;
7432;SDS011;32233;49.500;7.764;2023-03-19T09:28:18;5.73;;;3.23;;
7432;SDS011;32233;49.500;7.764;2023-03-19T09:30:46;4.03;;;2.63;;
7432;SDS011;32233;49.500;7.764;2023-03-19T09:33:13;2.83;;;2.43;;
7432;SDS011;32233;49.500;7.764;2023-03-19T09:35:42;3.87;;;2.50;;
7432;SDS011;32233;49.500;7.764;2023-03-19T09:38:08;3.47;;;2.70;;
7432;SDS011;32233;49.500;7.764;2023-03-19T09:40:40;3.33;;;2.60;;
7432;SDS011;32233;49.500;7.764;2023-03-19T09:46:15;3.40;;;2.83;;
7432;SDS011;32233;49.500;7.764;2023-03-19T09:51:18;3.57;;;2.40;;
7432;SDS011;32233;49.500;7.764;2023-03-19T09:53:55;3.70;;;2.20;;
7432;SDS011;32233;49.500;7.764;2023-03-19T09:56:29;3.57;;;2.30;;
7432;SDS011;32233;49.500;7.764;2023-03-19T09:58:58;3.27;;;2.17;;
7432;SDS011;32233;49.500;7.764;2023-03-19T10:01:26;3.07;;;1.83;;
7432;SDS011;32233;49.500;7.764;2023-03-19T10:04:05;3.97;;;1.97;;
7432;SDS011;32233;49.500;7.764;2023-03-19T10:06:52;2.63;;;2.10;;
7432;SDS011;32233;49.500;7.764;2023-03-19T10:12:09;3.53;;;1.63;;
7432;SDS011;32233;49.500;7.764;2023-03-19T10:20:28;1.97;;;1.60;;
7432;SDS011;32233;49.500;7.764;2023-03-19T10:23:02;3.17;;;1.80;;
7432;SDS011;32233;49.500;7.764;2023-03-19T10:25:45;3.03;;;2.00;;
7432;SDS011;32233;49.500;7.764;2023-03-19T10:28:14;2.67;;;2.00;;
7432;SDS011;32233;49.500;7.764;2023-03-19T10:30:43;2.03;;;1.70;;
7432;SDS011;32233;49.500;7.764;2023-03-19T10:35:54;4.37;;;2.00;;
7432;SDS011;32233;49.500;7.764;2023-03-19T10:38:25;2.53;;;2.20;;
7432;SDS011;32233;49.500;7.764;2023-03-19T10:41:11;2.83;;;2.50;;
7432;SDS011;32233;49.500;7.764;2023-03-19T10:44:02;2.70;;;2.50;;
7432;SDS011;32233;49.500;7.764;2023-03-19T10:46:35;3.80;;;2.93;;
7432;SDS011;32233;49.500;7.764;2023-03-19T10:49:12;7.10;;;3.40;;
7432;SDS011;32233;49.500;7.764;2023-03-19T10:51:46;4.30;;;3.03;;
7432;SDS011;32233;49.500;7.764;2023-03-19T10:54:24;7.90;;;3.60;;
7432;SDS011;32233;49.500;7.764;2023-03-19T10:56:59;8.03;;;4.43;;
7432;SDS011;32233;49.500;7.764;2023-03-19T11:01:56;4.50;;;3.30;;
7432;SDS011;32233;49.500;7.764;2023-03-19T11:04:44;4.97;;;4.17;;
7432;SDS011;32233;49.500;7.764;2023-03-19T11:07:12;9.40;;;4.30;;
7432;SDS011;32233;49.500;7.764;2023-03-19T11:09:47;6.60;;;4.53;;
7432;SDS011;32233;49.500;7.764;2023-03-19T11:14:48;8.10;;;5.13;;
7432;SDS011;32233;49.500;7.764;2023-03-19T11:22:40;7.90;;;5.27;;
7432;SDS011;32233;49.500;7.764;2023-03-19T11:25:15;7.97;;;4.90;;
7432;SDS011;32233;49.500;7.764;2023-03-19T11:44:16;8.40;;;5.03;;
7432;SDS011;32233;49.500;7.764;2023-03-19T11:49:50;4.63;;;3.80;;
7432;SDS011;32233;49.500;7.764;2023-03-19T11:57:53;5.87;;;3.87;;
7432;SDS011;32233;49.500;7.764;2023-03-19T12:11:51;4.90;;;3.07;;
7432;SDS011;32233;49.500;7.764;2023-03-19T12:22:57;4.27;;;3.67;;
7432;SDS011;32233;49.500;7.764;2023-03-19T12:25:36;4.50;;;3.30;;
7432;SDS011;32233;49.500;7.764;2023-03-19T12:33:46;7.13;;;3.90;;
7432;SDS011;32233;49.500;7.764;2023-03-19T12:36:19;4.93;;;3.53;;
7432;SDS011;32233;49.500;7.764;2023-03-19T12:38:52;3.73;;;3.43;;
7432;SDS011;32233;49.500;7.764;2023-03-19T12:41:23;4.17;;;3.63;;
7432;SDS011;32233;49.500;7.764;2023-03-19T12:46:30;4.37;;;3.47;;
7432;SDS011;32233;49.500;7.764;2023-03-19T12:49:13;4.37;;;3.83;;
7432;SDS011;32233;49.500;7.764;2023-03-19T12:51:45;5.30;;;4.10;;
7432;SDS011;32233;49.500;7.764;2023-03-19T12:57:14;4.03;;;3.50;;
7432;SDS011;32233;49.500;7.764;2023-03-19T12:59:49;3.27;;;2.90;;
7432;SDS011;32233;49.500;7.764;2023-03-19T13:02:43;5.93;;;3.93;;
7432;SDS011;32233;49.500;7.764;2023-03-19T13:08:11;4.63;;;3.77;;
7432;SDS011;32233;49.500;7.764;2023-03-19T13:10:39;4.93;;;3.07;;
7432;SDS011;32233;49.500;7.764;2023-03-19T13:13:13;3.10;;;2.83;;
7432;SDS011;32233;49.500;7.764;2023-03-19T13:15:45;2.77;;;2.20;;
7432;SDS011;32233;49.500;7.764;2023-03-19T13:18:35;3.30;;;1.70;;
7432;SDS011;32233;49.500;7.764;2023-03-19T13:21:22;1.87;;;1.77;;
7432;SDS011;32233;49.500;7.764;2023-03-19T13:24:03;3.67;;;1.87;;
7432;SDS011;32233;49.500;7.764;2023-03-19T13:26:40;2.77;;;2.03;;
7432;SDS011;32233;49.500;7.764;2023-03-19T13:29:11;3.70;;;2.00;;
7432;SDS011;32233;49.500;7.764;2023-03-19T13:31:44;3.50;;;2.30;;
7432;SDS011;32233;49.500;7.764;2023-03-19T13:34:23;2.57;;;1.80;;
7432;SDS011;32233;49.500;7.764;2023-03-19T13:37:11;2.70;;;2.40;;
7432;SDS011;32233;49.500;7.764;2023-03-19T13:39:41;2.73;;;1.90;;
7432;SDS011;32233;49.500;7.764;2023-03-19T13:44:50;2.60;;;1.70;;
7432;SDS011;32233;49.500;7.764;2023-03-19T13:50:06;1.30;;;1.20;;
7432;SDS011;32233;49.500;7.764;2023-03-19T13:58:04;1.40;;;1.30;;
7432;SDS011;32233;49.500;7.764;2023-03-19T14:05:55;1.83;;;1.50;;
7432;SDS011;32233;49.500;7.764;2023-03-19T14:08:24;3.13;;;1.40;;
7432;SDS011;32233;49.500;7.764;2023-03-19T14:10:59;1.97;;;1.20;;
7432;SDS011;32233;49.500;7.764;2023-03-19T14:13:30;1.43;;;1.00;;
7432;SDS011;32233;49.500;7.764;2023-03-19T14:16:03;1.00;;;1.00;;
7432;SDS011;32233;49.500;7.764;2023-03-19T14:18:36;2.33;;;1.20;;
7432;SDS011;32233;49.500;7.764;2023-03-19T14:21:08;1.70;;;1.20;;
7432;SDS011;32233;49.500;7.764;2023-03-19T14:23:50;2.37;;;1.90;;
7432;SDS011;32233;49.500;7.764;2023-03-19T14:26:24;1.50;;;1.10;;
7432;SDS011;32233;49.500;7.764;2023-03-19T14:29:05;1.03;;;0.97;;
7432;SDS011;32233;49.500;7.764;2023-03-19T14:34:39;1.10;;;1.10;;
7432;SDS011;32233;49.500;7.764;2023-03-19T14:42:58;1.00;;;1.00;;
7432;SDS011;32233;49.500;7.764;2023-03-19T14:48:24;2.23;;;0.90;;
7432;SDS011;32233;49.500;7.764;2023-03-19T14:56:50;1.00;;;0.87;;
7432;SDS011;32233;49.500;7.764;2023-03-19T14:59:17;2.07;;;1.23;;
7432;SDS011;32233;49.500;7.764;2023-03-19T15:01:46;1.40;;;0.90;;
7432;SDS011;32233;49.500;7.764;2023-03-19T15:04:16;1.03;;;0.83;;
7432;SDS011;32233;49.500;7.764;2023-03-19T15:06:50;1.33;;;0.90;;
7432;SDS011;32233;49.500;7.764;2023-03-19T15:09:23;3.30;;;1.23;;
7432;SDS011;32233;49.500;7.764;2023-03-19T15:17:35;1.13;;;1.00;;
7432;SDS011;32233;49.500;7.764;2023-03-19T15:22:53;1.83;;;1.03;;
7432;SDS011;32233;49.500;7.764;2023-03-19T15:25:21;1.73;;;1.27;;
7432;SDS011;32233;49.500;7.764;2023-03-19T15:28:04;2.70;;;1.53;;
7432;SDS011;32233;49.500;7.764;2023-03-19T15:30:33;3.00;;;1.43;;
7432;SDS011;32233;49.500;7.764;2023-03-19T15:33:20;1.97;;;1.33;;
7432;SDS011;32233;49.500;7.764;2023-03-19T15:36:07;2.43;;;1.37;;
7432;SDS011;32233;49.500;7.764;2023-03-19T15:41:20;2.10;;;1.60;;
7432;SDS011;32233;49.500;7.764;2023-03-19T15:43:50;2.13;;;1.90;;
7432;SDS011;32233;49.500;7.764;2023-03-19T15:46:18;3.20;;;1.50;;
7432;SDS011;32233;49.500;7.764;2023-03-19T15:48:51;2.17;;;1.40;;
7432;SDS011;32233;49.500;7.764;2023-03-19T15:51:27;1.20;;;1.10;;
7432;SDS011;32233;49.500;7.764;2023-03-19T15:53:54;3.50;;;1.90;;
7432;SDS011;32233;49.500;7.764;2023-03-19T15:56:21;3.17;;;2.23;;
7432;SDS011;32233;49.500;7.764;2023-03-19T15:58:49;1.57;;;1.30;;
7432;SDS011;32233;49.500;7.764;2023-03-19T16:01:20;1.77;;;1.40;;
7432;SDS011;32233;49.500;7.764;2023-03-19T16:06:48;0.77;;;0.77;;
7432;SDS011;32233;49.500;7.764;2023-03-19T16:09:18;0.93;;;0.80;;
7432;SDS011;32233;49.500;7.764;2023-03-19T16:11:49;1.20;;;1.10;;
7432;SDS011;32233;49.500;7.764;2023-03-19T16:17:08;3.80;;;2.00;;
7432;SDS011;32233;49.500;7.764;2023-03-19T16:19:36;1.07;;;0.93;;
7432;SDS011;32233;49.500;7.764;2023-03-19T16:22:14;3.90;;;1.90;;
7432;SDS011;32233;49.500;7.764;2023-03-19T16:24:43;4.47;;;2.23;;
7432;SDS011;32233;49.500;7.764;2023-03-19T16:27:21;2.27;;;1.57;;
7432;SDS011;32233;49.500;7.764;2023-03-19T16:29:57;1.70;;;0.60;;
7432;SDS011;32233;49.500;7.764;2023-03-19T16:32:28;0.57;;;0.50;;
7432;SDS011;32233;49.500;7.764;2023-03-19T16:35:11;1.63;;;0.50;;
7432;SDS011;32233;49.500;7.764;2023-03-19T16:37:41;1.03;;;0.60;;
7432;SDS011;32233;49.500;7.764;2023-03-19T16:42:37;1.80;;;0.87;;
7432;SDS011;32233;49.500;7.764;2023-03-19T16:47:44;0.57;;;0.57;;
7432;SDS011;32233;49.500;7.764;2023-03-19T16:50:11;0.30;;;0.30;;
7432;SDS011;32233;49.500;7.764;2023-03-19T16:52:40;0.57;;;0.30;;
7432;SDS011;32233;49.500;7.764;2023-03-19T16:58:00;0.87;;;0.30;;
7432;SDS011;32233;49.500;7.764;2023-03-19T17:00:31;0.40;;;0.27;;
7432;SDS011;32233;49.500;7.764;2023-03-19T17:02:59;1.03;;;0.30;;
7432;SDS011;32233;49.500;7.764;2023-03-19T17:05:26;0.30;;;0.30;;
7432;SDS011;32233;49.500;7.764;2023-03-19T17:07:54;0.23;;;0.23;;
7432;SDS011;32233;49.500;7.764;2023-03-19T17:10:21;0.40;;;0.40;;
7432;SDS011;32233;49.500;7.764;2023-03-19T17:12:52;1.07;;;0.33;;
7432;SDS011;32233;49.500;7.764;2023-03-19T17:15:27;3.10;;;1.67;;
7432;SDS011;32233;49.500;7.764;2023-03-19T17:17:56;2.63;;;1.70;;
7432;SDS011;32233;49.500;7.764;2023-03-19T17:20:26;2.20;;;1.80;;
7432;SDS011;32233;49.500;7.764;2023-03-19T17:22:58;2.23;;;1.90;;
7432;SDS011;32233;49.500;7.764;2023-03-19T17:25:25;2.30;;;2.10;;
7432;SDS011;32233;49.500;7.764;2023-03-19T17:27:52;3.00;;;1.57;;
7432;SDS011;32233;49.500;7.764;2023-03-19T17:30:18;2.80;;;2.30;;
7432;SDS011;32233;49.500;7.764;2023-03-19T17:32:46;6.37;;;2.70;;
7432;SDS011;32233;49.500;7.764;2023-03-19T17:35:15;2.47;;;1.60;;
7432;SDS011;32233;49.500;7.764;2023-03-19T17:37:44;1.70;;;1.57;;
7432;SDS011;32233;49.500;7.764;2023-03-19T17:40:16;1.40;;;1.00;;
7432;SDS011;32233;49.500;7.764;2023-03-19T17:42:44;1.77;;;0.80;;
7432;SDS011;32233;49.500;7.764;2023-03-19T17:45:11;0.40;;;0.40;;
7432;SDS011;32233;49.500;7.764;2023-03-19T17:47:39;0.50;;;0.50;;
7432;SDS011;32233;49.500;7.764;2023-03-19T17:50:12;0.50;;;0.50;;
7432;SDS011;32233;49.500;7.764;2023-03-19T17:52:42;0.57;;;0.50;;